createdAt,value
2023-04-19T00:00:09.637Z,99985.89
2023-04-19T00:02:42.880Z,99983.75
2023-04-19T00:05:13.997Z,99978.06
2023-04-19T00:07:42.869Z,99975.23
2023-04-19T00:10:11.584Z,99977.62
2023-04-19T00:12:40.770Z,99977.85
2023-04-19T00:15:10.290Z,99980.29
2023-04-19T00:17:39.120Z,99978.56
2023-04-19T00:20:08.649Z,99978.48
2023-04-19T00:22:38.059Z,99972.30
2023-04-19T00:25:06.989Z,99968.20
2023-04-19T00:27:37.117Z,99964.86
2023-04-19T00:30:07.947Z,99963.88
2023-04-19T00:32:36.785Z,99965.84
2023-04-19T00:35:06.235Z,99962.91
2023-04-19T00:37:34.910Z,99958.71
2023-04-19T00:40:04.832Z,99959.16
2023-04-19T00:42:34.969Z,99956.02
2023-04-19T00:45:04.380Z,99952.70
2023-04-19T00:47:33.207Z,99951.61
2023-04-19T00:50:01.973Z,99952.08
2023-04-19T00:52:30.713Z,99950.07
2023-04-19T00:55:00.153Z,99941.77
2023-04-19T00:57:30.346Z,99940.09
2023-04-19T00:59:59.743Z,99938.44
2023-04-19T01:02:28.892Z,99938.56
2023-04-19T01:04:58.044Z,99938.61
2023-04-19T01:07:27.233Z,99938.08
2023-04-19T01:09:55.712Z,99935.70
2023-04-19T01:12:24.197Z,99935.25
2023-04-19T01:14:53.496Z,99932.03
2023-04-19T01:17:22.000Z,99926.44
2023-04-19T01:19:52.172Z,99925.91
2023-04-19T01:22:22.981Z,99928.13
2023-04-19T01:24:51.814Z,99923.37
2023-04-19T01:27:20.176Z,99924.92
2023-04-19T01:29:48.628Z,99923.22
2023-04-19T01:32:17.583Z,99923.00
2023-04-19T01:34:47.281Z,99925.98
2023-04-19T01:37:16.895Z,99923.41
2023-04-19T01:39:45.173Z,99921.91
2023-04-19T01:42:15.398Z,99922.64
2023-04-19T01:44:45.010Z,99920.44
2023-04-19T01:47:13.419Z,99917.13
2023-04-19T01:49:42.335Z,99914.31
2023-04-19T01:52:10.614Z,99913.61
2023-04-19T01:54:38.995Z,99915.35
2023-04-19T01:57:08.902Z,99912.70
2023-04-19T01:59:38.407Z,99911.02
2023-04-19T02:02:08.569Z,99903.41
2023-04-19T02:04:38.812Z,99904.73
2023-04-19T02:07:08.666Z,99910.20
2023-04-19T02:09:37.767Z,99901.33
2023-04-19T02:12:06.763Z,99900.23
2023-04-19T02:14:35.655Z,99899.88
2023-04-19T02:17:06.896Z,99901.31
2023-04-19T02:19:36.604Z,99899.70
2023-04-19T02:22:06.474Z,99899.11
2023-04-19T02:24:34.973Z,99896.41
2023-04-19T02:27:03.442Z,99898.79
2023-04-19T02:29:34.785Z,99901.65
2023-04-19T02:32:08.637Z,99901.05
2023-04-19T02:34:39.327Z,99903.23
2023-04-19T02:37:07.705Z,99903.39
2023-04-19T02:39:36.287Z,99903.23
2023-04-19T02:42:05.799Z,99901.30
2023-04-19T02:44:33.868Z,99897.96
2023-04-19T02:47:02.153Z,99893.50
2023-04-19T02:49:32.838Z,99896.77
2023-04-19T02:52:01.559Z,99893.52
2023-04-19T02:54:32.652Z,99894.98
2023-04-19T02:57:01.326Z,99897.30
2023-04-19T02:59:29.611Z,99899.77
2023-04-19T03:01:59.649Z,99901.99
2023-04-19T03:04:29.208Z,99900.56
2023-04-19T03:06:57.712Z,99902.91
2023-04-19T03:09:26.600Z,99902.17
2023-04-19T03:11:55.199Z,99904.11
2023-04-19T03:14:23.669Z,99906.79
2023-04-19T03:16:52.254Z,99904.01
2023-04-19T03:19:20.736Z,99903.98
2023-04-19T03:21:51.877Z,99904.66
2023-04-19T03:24:30.309Z,99901.58
2023-04-19T03:26:59.999Z,99899.39
2023-04-19T03:29:30.116Z,99894.87
2023-04-19T03:32:02.088Z,99894.27
2023-04-19T03:34:30.777Z,99893.39
2023-04-19T03:36:59.448Z,99888.80
2023-04-19T03:39:28.436Z,99885.06
2023-04-19T03:42:01.657Z,99884.76
2023-04-19T03:44:48.773Z,99888.13
2023-04-19T03:47:18.718Z,99885.86
2023-04-19T03:49:49.468Z,99880.59
2023-04-19T03:52:18.507Z,99878.77
2023-04-19T03:54:47.945Z,99877.88
2023-04-19T03:57:27.489Z,99870.98
2023-04-19T03:59:56.065Z,99874.58
2023-04-19T04:02:25.017Z,99879.40
2023-04-19T04:04:55.445Z,99879.14
2023-04-19T04:07:24.990Z,99878.23
2023-04-19T04:09:54.804Z,99879.64
2023-04-19T04:12:23.696Z,99878.70
2023-04-19T04:14:53.508Z,99883.98
2023-04-19T04:17:24.601Z,99880.23
2023-04-19T04:19:53.236Z,99882.65
2023-04-19T04:22:23.146Z,99885.48
2023-04-19T04:24:54.089Z,99884.03
2023-04-19T04:27:26.874Z,99882.80
2023-04-19T04:29:56.913Z,99881.30
2023-04-19T04:32:25.505Z,99880.86
2023-04-19T04:34:58.139Z,99878.07
2023-04-19T04:37:41.812Z,99874.23
2023-04-19T04:40:11.525Z,99878.83
2023-04-19T04:42:40.107Z,99882.65
2023-04-19T04:45:10.909Z,99879.35
2023-04-19T04:47:39.675Z,99880.02
2023-04-19T04:50:09.336Z,99884.56
2023-04-19T04:52:38.036Z,99881.45
2023-04-19T04:55:25.416Z,99883.88
2023-04-19T04:57:55.244Z,99883.27
2023-04-19T05:00:31.184Z,99888.78
2023-04-19T05:03:03.486Z,99889.63
2023-04-19T05:05:33.883Z,99890.50
2023-04-19T05:08:02.167Z,99890.02
2023-04-19T05:10:31.454Z,99888.11
2023-04-19T05:13:01.767Z,99883.60
2023-04-19T05:15:31.096Z,99884.77
2023-04-19T05:17:59.898Z,99885.92
2023-04-19T05:20:29.719Z,99886.96
2023-04-19T05:23:06.768Z,99889.59
2023-04-19T05:25:35.586Z,99887.52
2023-04-19T05:28:07.849Z,99886.94
2023-04-19T05:30:44.277Z,99889.71
2023-04-19T05:33:13.270Z,99887.45
2023-04-19T05:35:41.957Z,99886.20
2023-04-19T05:38:10.547Z,99892.22
2023-04-19T05:40:48.120Z,99891.95
2023-04-19T05:43:16.421Z,99897.84
2023-04-19T05:45:45.015Z,99902.45
2023-04-19T05:48:13.484Z,99904.91
2023-04-19T05:51:19.214Z,99898.63
2023-04-19T05:54:12.909Z,99894.16
2023-04-19T05:56:43.647Z,99894.48
2023-04-19T05:59:12.025Z,99895.73
2023-04-19T06:01:40.834Z,99897.73
2023-04-19T06:04:09.409Z,99895.59
2023-04-19T06:06:38.290Z,99900.33
2023-04-19T06:09:07.514Z,99899.06
2023-04-19T06:11:43.140Z,99903.64
2023-04-19T06:14:18.510Z,99900.86
2023-04-19T06:16:47.681Z,99905.63
2023-04-19T06:19:16.266Z,99901.86
2023-04-19T06:21:44.640Z,99899.00
2023-04-19T06:24:13.300Z,99901.59
2023-04-19T06:26:41.709Z,99897.70
2023-04-19T06:29:10.091Z,99897.49
2023-04-19T06:31:38.713Z,99897.93
2023-04-19T06:34:06.943Z,99893.66
2023-04-19T06:36:35.732Z,99890.91
2023-04-19T06:39:04.424Z,99892.45
2023-04-19T06:41:32.695Z,99891.98
2023-04-19T06:44:01.409Z,99890.02
2023-04-19T06:46:29.965Z,99894.03
2023-04-19T06:48:58.171Z,99893.71
2023-04-19T06:51:26.521Z,99891.59
2023-04-19T06:53:55.007Z,99891.88
2023-04-19T06:56:47.150Z,99893.41
2023-04-19T06:59:17.422Z,99897.63
2023-04-19T07:01:46.155Z,99895.31
2023-04-19T07:04:15.515Z,99891.15
2023-04-19T07:06:44.246Z,99885.70
2023-04-19T07:09:12.542Z,99887.96
2023-04-19T07:11:43.148Z,99889.46
2023-04-19T07:14:11.834Z,99892.64
2023-04-19T07:16:42.990Z,99888.77
2023-04-19T07:19:11.366Z,99890.40
2023-04-19T07:21:40.039Z,99891.41
2023-04-19T07:24:13.725Z,99894.65
2023-04-19T07:26:53.611Z,99895.52
2023-04-19T07:29:22.688Z,99895.00
2023-04-19T07:31:51.036Z,99892.25
2023-04-19T07:34:19.576Z,99895.23
2023-04-19T07:36:50.489Z,99891.64
2023-04-19T07:39:21.430Z,99891.98
2023-04-19T07:41:49.942Z,99887.73
2023-04-19T07:44:18.765Z,99880.02
2023-04-19T07:46:48.049Z,99882.67
2023-04-19T07:49:16.592Z,99883.67
2023-04-19T07:51:45.108Z,99884.91
2023-04-19T07:54:16.928Z,99885.91
2023-04-19T07:56:46.049Z,99884.68
2023-04-19T07:59:14.502Z,99886.29
2023-04-19T08:01:43.959Z,99880.91
2023-04-19T08:04:12.597Z,99875.05
2023-04-19T08:06:41.781Z,99873.59
2023-04-19T08:09:10.976Z,99871.37
2023-04-19T08:11:39.261Z,99869.93
2023-04-19T08:14:15.068Z,99871.95
2023-04-19T08:19:22.009Z,99870.89
2023-04-19T08:21:50.723Z,99871.58
2023-04-19T08:24:19.262Z,99869.77
2023-04-19T08:26:54.110Z,99867.42
2023-04-19T08:29:26.177Z,99862.81
2023-04-19T08:31:54.735Z,99861.80
2023-04-19T08:34:23.447Z,99860.98
2023-04-19T08:37:03.441Z,99857.65
2023-04-19T08:39:34.188Z,99860.85
2023-04-19T08:42:11.073Z,99862.33
2023-04-19T08:45:22.637Z,99853.84
2023-04-19T08:47:56.309Z,99853.85
2023-04-19T08:50:34.590Z,99850.39
2023-04-19T08:56:03.519Z,99851.01
2023-04-19T08:58:51.974Z,99849.73
2023-04-19T09:01:34.706Z,99844.71
2023-04-19T09:06:41.476Z,99842.74
2023-04-19T09:09:29.221Z,99842.98
2023-04-19T09:12:04.261Z,99839.99
2023-04-19T09:14:36.833Z,99833.28
2023-04-19T09:17:17.382Z,99833.11
2023-04-19T09:19:47.277Z,99829.11
2023-04-19T09:22:15.593Z,99836.58
2023-04-19T09:27:22.667Z,99831.25
2023-04-19T09:29:55.771Z,99832.34
2023-04-19T09:32:24.778Z,99833.27
2023-04-19T09:34:58.083Z,99831.58
2023-04-19T09:37:56.709Z,99832.25
2023-04-19T09:40:24.892Z,99836.09
2023-04-19T09:46:53.359Z,99834.05
2023-04-19T09:49:41.673Z,99839.10
2023-04-19T09:52:15.934Z,99842.32
2023-04-19T09:54:44.389Z,99847.70
2023-04-19T09:57:12.680Z,99844.15
2023-04-19T09:59:41.549Z,99841.61
2023-04-19T10:02:10.105Z,99838.80
2023-04-19T10:09:53.127Z,99833.30
2023-04-19T10:14:58.763Z,99827.55
2023-04-19T10:17:27.469Z,99825.06
2023-04-19T10:20:01.970Z,99826.05
2023-04-19T10:22:30.692Z,99833.95
2023-04-19T10:25:29.307Z,99836.05
2023-04-19T10:27:57.692Z,99832.98
2023-04-19T10:30:29.391Z,99840.77
2023-04-19T10:32:59.857Z,99844.79
2023-04-19T10:35:33.926Z,99846.45
2023-04-19T10:38:09.272Z,99842.09
2023-04-19T10:40:54.444Z,99841.69
2023-04-19T10:43:26.401Z,99841.79
2023-04-19T10:45:55.636Z,99842.42
2023-04-19T10:48:31.055Z,99842.39
2023-04-19T10:51:04.242Z,99840.20
2023-04-19T10:53:49.830Z,99837.73
2023-04-19T10:56:39.472Z,99839.81
2023-04-19T10:59:16.734Z,99849.55
2023-04-19T11:01:47.025Z,99845.48
2023-04-19T11:04:16.108Z,99850.45
2023-04-19T11:06:54.212Z,99849.77
2023-04-19T11:09:34.947Z,99848.12
2023-04-19T11:12:04.850Z,99844.35
2023-04-19T11:14:38.795Z,99845.48
2023-04-19T11:17:27.400Z,99841.63
2023-04-19T11:19:58.053Z,99838.45
2023-04-19T11:22:36.141Z,99841.60
2023-04-19T11:25:16.762Z,99844.21
2023-04-19T11:27:46.562Z,99844.25
2023-04-19T11:30:23.090Z,99837.90
2023-04-19T11:32:55.820Z,99839.15
2023-04-19T11:35:28.080Z,99843.38
2023-04-19T11:37:56.910Z,99846.61
2023-04-19T11:40:28.819Z,99849.30
2023-04-19T11:43:02.413Z,99847.48
2023-04-19T11:45:39.239Z,99840.74
2023-04-19T11:48:15.712Z,99835.02
2023-04-19T11:50:45.413Z,99842.27
2023-04-19T11:53:16.452Z,99846.84
2023-04-19T11:55:48.528Z,99846.57
2023-04-19T11:58:45.189Z,99847.31
2023-04-19T12:01:16.037Z,99850.04
2023-04-19T12:03:54.667Z,99849.17
2023-04-19T12:06:28.275Z,99851.15
2023-04-19T12:08:57.121Z,99851.16
2023-04-19T12:11:27.080Z,99859.00
2023-04-19T12:14:11.826Z,99854.53
2023-04-19T12:16:40.388Z,99858.16
2023-04-19T12:19:21.561Z,99851.08
2023-04-19T12:21:50.037Z,99846.17
2023-04-19T12:24:18.432Z,99849.48
2023-04-19T12:27:04.263Z,99848.85
2023-04-19T12:29:34.217Z,99854.69
2023-04-19T12:32:03.674Z,99851.50
2023-04-19T12:34:33.538Z,99856.47
2023-04-19T12:37:02.952Z,99855.06
2023-04-19T12:39:31.939Z,99862.39
2023-04-19T12:42:03.414Z,99862.25
2023-04-19T12:44:31.861Z,99861.98
2023-04-19T12:47:03.213Z,99862.23
2023-04-19T12:49:32.516Z,99865.56
2023-04-19T12:52:01.094Z,99864.41
2023-04-19T12:54:30.825Z,99870.90
2023-04-19T12:56:59.080Z,99867.19
2023-04-19T12:59:31.069Z,99868.71
2023-04-19T13:02:05.042Z,99871.17
2023-04-19T13:04:33.918Z,99869.60
2023-04-19T13:07:02.637Z,99871.42
2023-04-19T13:09:34.220Z,99868.20
2023-04-19T13:12:03.386Z,99870.19
2023-04-19T13:14:32.174Z,99871.80
2023-04-19T13:17:00.666Z,99875.52
2023-04-19T13:19:29.457Z,99876.47
2023-04-19T13:21:57.832Z,99874.27
2023-04-19T13:24:26.522Z,99876.04
2023-04-19T13:26:55.584Z,99875.03
2023-04-19T13:29:24.409Z,99875.56
2023-04-19T13:31:53.082Z,99877.34
2023-04-19T13:34:21.670Z,99885.26
2023-04-19T13:36:50.359Z,99887.83
2023-04-19T13:39:18.838Z,99880.66
2023-04-19T13:41:47.320Z,99874.77
2023-04-19T13:44:16.235Z,99879.14
2023-04-19T13:46:45.106Z,99879.42
2023-04-19T13:49:13.794Z,99879.42
2023-04-19T13:51:49.578Z,99877.27
2023-04-19T13:54:20.053Z,99881.78
2023-04-19T13:56:51.370Z,99880.04
2023-04-19T13:59:21.392Z,99885.09
2023-04-19T14:01:49.754Z,99892.81
2023-04-19T14:04:19.548Z,99889.95
2023-04-19T14:06:49.445Z,99889.06
2023-04-19T14:09:18.270Z,99889.32
2023-04-19T14:11:47.431Z,99884.41
2023-04-19T14:14:18.323Z,99888.42
2023-04-19T14:16:47.062Z,99889.48
2023-04-19T14:19:15.842Z,99891.25
2023-04-19T14:21:44.231Z,99894.83
2023-04-19T14:24:13.241Z,99899.06
2023-04-19T14:26:41.600Z,99898.37
2023-04-19T14:29:10.902Z,99898.55
2023-04-19T14:31:39.339Z,99900.69
2023-04-19T14:34:07.963Z,99893.79
2023-04-19T14:36:36.785Z,99890.38
2023-04-19T14:39:13.125Z,99890.86
2023-04-19T14:41:41.711Z,99896.45
2023-04-19T14:44:10.568Z,99895.33
2023-04-19T14:46:38.972Z,99894.30
2023-04-19T14:49:07.451Z,99892.31
2023-04-19T14:51:36.447Z,99897.61
2023-04-19T14:54:04.674Z,99898.66
2023-04-19T14:56:33.100Z,99898.52
2023-04-19T14:59:01.659Z,99894.55
2023-04-19T15:01:30.329Z,99896.27
2023-04-19T15:03:59.275Z,99894.28
2023-04-19T15:06:27.752Z,99895.52
2023-04-19T15:08:56.334Z,99893.01
2023-04-19T15:11:24.808Z,99892.58
2023-04-19T15:13:52.967Z,99895.52
2023-04-19T15:16:21.430Z,99895.88
2023-04-19T15:18:49.837Z,99894.77
2023-04-19T15:21:24.341Z,99895.10
2023-04-19T15:23:53.207Z,99896.38
2023-04-19T15:26:21.934Z,99895.75
2023-04-19T15:28:57.039Z,99891.15
2023-04-19T15:31:25.408Z,99886.39
2023-04-19T15:33:54.449Z,99888.84
2023-04-19T15:36:22.732Z,99885.35
2023-04-19T15:38:51.307Z,99885.05
2023-04-19T15:41:20.128Z,99886.02
2023-04-19T15:43:48.519Z,99890.35
2023-04-19T15:46:17.293Z,99887.34
2023-04-19T15:48:47.046Z,99888.69
2023-04-19T15:51:15.874Z,99886.91
2023-04-19T15:53:44.247Z,99884.78
2023-04-19T15:56:12.627Z,99888.95
2023-04-19T15:58:41.515Z,99887.23
2023-04-19T16:01:13.524Z,99884.77
2023-04-19T16:03:42.259Z,99881.63
2023-04-19T16:06:10.753Z,99879.33
2023-04-19T16:08:39.335Z,99878.47
2023-04-19T16:11:07.971Z,99879.75
2023-04-19T16:13:36.500Z,99880.08
2023-04-19T16:16:05.900Z,99885.80
2023-04-19T16:18:34.893Z,99881.84
2023-04-19T16:21:03.583Z,99880.40
2023-04-19T16:23:32.582Z,99886.60
2023-04-19T16:26:00.974Z,99883.77
2023-04-19T16:28:29.744Z,99893.06
2023-04-19T16:30:58.029Z,99895.52
2023-04-19T16:33:26.825Z,99899.04
2023-04-19T16:35:55.093Z,99900.42
2023-04-19T16:38:23.473Z,99902.92
2023-04-19T16:40:52.053Z,99904.84
2023-04-19T16:43:22.384Z,99903.16
2023-04-19T16:45:50.707Z,99910.70
2023-04-19T16:48:20.056Z,99908.66
2023-04-19T16:50:50.997Z,99912.24
2023-04-19T16:53:20.092Z,99913.89
2023-04-19T16:55:48.883Z,99913.84
2023-04-19T16:58:19.207Z,99912.75
2023-04-19T17:00:48.725Z,99917.38
2023-04-19T17:03:20.488Z,99917.60
2023-04-19T17:05:49.156Z,99923.48
2023-04-19T17:08:17.541Z,99924.04
2023-04-19T17:10:45.835Z,99932.48
2023-04-19T17:13:17.014Z,99930.56
2023-04-19T17:15:46.030Z,99935.11
2023-04-19T17:18:14.592Z,99937.92
2023-04-19T17:20:42.912Z,99940.23
2023-04-19T17:23:11.164Z,99940.97
2023-04-19T17:25:39.636Z,99947.39
2023-04-19T17:28:07.959Z,99946.50
2023-04-19T17:30:36.432Z,99954.02
2023-04-19T17:33:08.319Z,99953.38
2023-04-19T17:35:36.570Z,99956.80
2023-04-19T17:38:07.510Z,99960.21
2023-04-19T17:40:35.893Z,99961.17
2023-04-19T17:43:04.380Z,99965.02
2023-04-19T17:45:32.862Z,99970.25
2023-04-19T17:48:02.293Z,99974.46
2023-04-19T17:50:30.837Z,99975.20
2023-04-19T17:52:59.157Z,99972.06
2023-04-19T17:55:27.326Z,99972.16
2023-04-19T17:57:55.872Z,99972.86
2023-04-19T18:00:24.352Z,99969.05
2023-04-19T18:02:53.052Z,99971.04
2023-04-19T18:05:21.735Z,99977.25
2023-04-19T18:07:50.525Z,99981.16
2023-04-19T18:10:19.511Z,99986.30
2023-04-19T18:12:48.196Z,99983.42
2023-04-19T18:15:16.477Z,99985.84
2023-04-19T18:17:44.911Z,99990.64
2023-04-19T18:20:14.053Z,99990.40
2023-04-19T18:22:42.636Z,99995.33
2023-04-19T18:25:11.320Z,100000.09
2023-04-19T18:27:40.724Z,99999.95
2023-04-19T18:30:09.818Z,100004.90
2023-04-19T18:32:38.953Z,100006.86
2023-04-19T18:35:10.183Z,100009.09
2023-04-19T18:37:39.265Z,100015.41
2023-04-19T18:40:09.003Z,100008.20
2023-04-19T18:42:37.653Z,100012.41
2023-04-19T18:45:07.484Z,100012.54
2023-04-19T18:47:36.012Z,100013.05
2023-04-19T18:50:06.684Z,100013.78
2023-04-19T18:52:37.029Z,100012.27
2023-04-19T18:55:06.584Z,100013.23
2023-04-19T18:57:35.356Z,100012.25
2023-04-19T19:00:06.464Z,100015.85
2023-04-19T19:02:37.686Z,100019.41
2023-04-19T19:05:12.600Z,100016.77
2023-04-19T19:07:43.102Z,100015.86
2023-04-19T19:12:43.098Z,100011.50
2023-04-19T19:15:11.609Z,100013.01
2023-04-19T19:17:40.754Z,100014.05
2023-04-19T19:20:10.305Z,100010.58
2023-04-19T19:22:38.567Z,100007.52
2023-04-19T19:25:16.571Z,100009.66
2023-04-19T19:28:03.015Z,100004.98
2023-04-19T19:30:34.777Z,100005.51
2023-04-19T19:33:05.142Z,100002.66
2023-04-19T19:35:33.763Z,100003.20
2023-04-19T19:38:02.215Z,99999.98
2023-04-19T19:40:32.497Z,99995.68
2023-04-19T19:43:01.759Z,99991.52
2023-04-19T19:45:31.653Z,99994.70
2023-04-19T19:48:00.690Z,100003.83
2023-04-19T19:53:02.932Z,100000.88
2023-04-19T19:55:32.662Z,99998.06
2023-04-19T19:58:32.662Z,99999.27
2023-04-19T20:03:35.346Z,100000.63
2023-04-19T20:08:43.946Z,99998.86
2023-04-19T20:11:12.990Z,99993.77
2023-04-19T20:13:41.472Z,100000.67
2023-04-19T20:16:11.027Z,99993.11
2023-04-19T20:18:39.457Z,99992.70
2023-04-19T20:21:09.844Z,99993.48
2023-04-19T20:23:41.991Z,99997.38
2023-04-19T20:26:10.433Z,100001.95
2023-04-19T20:28:39.639Z,99998.22
2023-04-19T20:31:08.421Z,99999.08
2023-04-19T20:33:37.114Z,99998.17
2023-04-19T20:36:07.024Z,99998.04
2023-04-19T20:38:36.121Z,99996.95
2023-04-19T20:41:04.486Z,99996.89
2023-04-19T20:43:33.099Z,99994.59
2023-04-19T20:46:01.406Z,99996.30
2023-04-19T20:48:29.959Z,99990.56
2023-04-19T20:50:58.339Z,99990.34
2023-04-19T20:53:28.134Z,99991.05
2023-04-19T20:55:56.609Z,99991.26
2023-04-19T20:58:24.996Z,99990.98
2023-04-19T21:00:53.360Z,99987.15
2023-04-19T21:03:22.329Z,99988.48
2023-04-19T21:05:51.312Z,99982.77
2023-04-19T21:08:20.943Z,99980.63
2023-04-19T21:10:49.661Z,99981.06
2023-04-19T21:13:18.033Z,99977.42
2023-04-19T21:15:46.439Z,99974.52
2023-04-19T21:18:14.788Z,99971.83
2023-04-19T21:20:43.793Z,99973.90
2023-04-19T21:23:12.163Z,99972.63
2023-04-19T21:25:40.716Z,99973.36
2023-04-19T21:28:09.153Z,99971.83
2023-04-19T21:30:43.496Z,99972.42
2023-04-19T21:33:12.646Z,99969.69
2023-04-19T21:35:40.952Z,99969.58
2023-04-19T21:38:09.330Z,99969.09
2023-04-19T21:40:37.913Z,99966.42
2023-04-19T21:43:06.320Z,99965.42
2023-04-19T21:45:34.592Z,99961.73
2023-04-19T21:48:02.780Z,99958.48
2023-04-19T21:50:31.742Z,99953.08
2023-04-19T21:53:00.036Z,99953.91
2023-04-19T21:55:32.593Z,99955.33
2023-04-19T21:58:02.387Z,99951.46
2023-04-19T22:03:00.917Z,99952.40
2023-04-19T22:05:29.562Z,99946.41
2023-04-19T22:07:59.134Z,99946.55
2023-04-19T22:10:28.650Z,99944.02
2023-04-19T22:12:59.050Z,99940.55
2023-04-19T22:15:28.163Z,99933.91
2023-04-19T22:17:57.751Z,99932.73
2023-04-19T22:20:27.170Z,99930.61
2023-04-19T22:22:56.275Z,99926.67
2023-04-19T22:25:24.759Z,99926.16
2023-04-19T22:27:53.541Z,99927.36
2023-04-19T22:30:21.933Z,99925.03
2023-04-19T22:32:50.221Z,99921.86
2023-04-19T22:35:20.660Z,99920.26
2023-04-19T22:37:50.694Z,99909.72
2023-04-19T22:40:18.826Z,99911.42
2023-04-19T22:42:47.290Z,99913.13
2023-04-19T22:45:15.588Z,99910.19
2023-04-19T22:47:43.954Z,99904.94
2023-04-19T22:50:12.729Z,99903.77
2023-04-19T22:52:41.818Z,99898.44
2023-04-19T22:55:11.101Z,99896.29
2023-04-19T22:57:40.083Z,99895.15
2023-04-19T23:00:10.978Z,99893.85
2023-04-19T23:02:40.045Z,99890.73
2023-04-19T23:05:09.339Z,99889.73
2023-04-19T23:07:40.269Z,99885.31
2023-04-19T23:10:10.569Z,99887.63
2023-04-19T23:12:40.220Z,99880.50
2023-04-19T23:15:10.789Z,99880.51
2023-04-19T23:17:39.965Z,99879.66
2023-04-19T23:20:12.669Z,99877.56
2023-04-19T23:22:41.426Z,99875.73
2023-04-19T23:25:10.020Z,99873.13
2023-04-19T23:27:38.914Z,99871.40
2023-04-19T23:30:08.541Z,99870.67
2023-04-19T23:32:38.243Z,99867.84
2023-04-19T23:35:07.124Z,99867.52
2023-04-19T23:37:38.030Z,99864.70
2023-04-19T23:40:07.974Z,99865.91
2023-04-19T23:42:50.200Z,99862.28
2023-04-19T23:45:18.668Z,99860.25
2023-04-19T23:47:47.104Z,99862.92
2023-04-19T23:50:15.561Z,99863.13
2023-04-19T23:52:46.857Z,99859.73
2023-04-19T23:55:15.294Z,99855.69
2023-04-19T23:57:45.725Z,99856.31
